createdAt,value
2022-08-17T00:00:42.925Z,102501.50
2022-08-17T00:04:10.691Z,102497.84
2022-08-17T00:07:35.205Z,102496.38
2022-08-17T00:10:59.242Z,102486.38
2022-08-17T00:14:24.190Z,102483.91
2022-08-17T00:17:47.263Z,102465.72
2022-08-17T00:21:11.155Z,102463.66
2022-08-17T00:24:36.267Z,102465.47
2022-08-17T00:28:01.213Z,102462.81
2022-08-17T00:31:24.230Z,102461.75
2022-08-17T00:34:48.187Z,102468.97
2022-08-17T00:38:13.331Z,102454.91
2022-08-17T00:41:40.785Z,102463.53
2022-08-17T00:45:06.222Z,102448.00
2022-08-17T00:48:30.648Z,102448.19
2022-08-17T00:52:23.337Z,102446.44
2022-08-17T00:55:46.156Z,102441.44
2022-08-17T00:59:10.243Z,102449.25
2022-08-17T01:02:34.414Z,102447.84
2022-08-17T01:06:08.272Z,102436.16
2022-08-17T01:09:33.241Z,102446.59
2022-08-17T01:12:57.260Z,102445.19
2022-08-17T01:16:31.233Z,102433.25
2022-08-17T01:19:56.328Z,102443.34
2022-08-17T01:23:20.711Z,102431.78
2022-08-17T01:26:44.271Z,102440.63
2022-08-17T01:30:57.921Z,102432.09
2022-08-17T01:33:50.427Z,102434.19
2022-08-17T01:37:13.314Z,102422.25
2022-08-17T01:40:38.195Z,102428.88
2022-08-17T01:44:01.272Z,102430.28
2022-08-17T01:47:25.238Z,102426.41
2022-08-17T01:50:49.281Z,102412.94
2022-08-17T01:54:06.667Z,102420.38
2022-08-17T01:57:25.250Z,102418.13
2022-08-17T02:00:59.789Z,102413.84
2022-08-17T02:04:24.239Z,102397.75
2022-08-17T02:07:59.415Z,102400.50
2022-08-17T02:11:26.242Z,102404.75
2022-08-17T02:14:49.267Z,102402.81
2022-08-17T02:18:14.271Z,102408.75
2022-08-17T02:21:47.268Z,102418.22
2022-08-17T02:25:11.257Z,102417.28
2022-08-17T02:28:39.242Z,102411.59
2022-08-17T02:32:03.229Z,102401.78
2022-08-17T02:35:27.304Z,102401.69
2022-08-17T02:38:51.207Z,102413.13
2022-08-17T02:42:18.264Z,102433.41
2022-08-17T02:45:41.266Z,102435.53
2022-08-17T02:49:04.272Z,102439.28
2022-08-17T02:52:43.409Z,102424.75
2022-08-17T02:56:08.261Z,102433.28
2022-08-17T02:59:32.208Z,102439.53
2022-08-17T03:02:56.255Z,102423.94
2022-08-17T03:06:19.264Z,102430.44
2022-08-17T03:09:42.318Z,102422.97
2022-08-17T03:13:05.284Z,102419.06
2022-08-17T03:16:29.256Z,102411.41
2022-08-17T03:19:52.299Z,102406.91
2022-08-17T03:23:16.277Z,102407.75
2022-08-17T03:26:41.323Z,102403.47
2022-08-17T03:30:04.278Z,102401.94
2022-08-17T03:33:28.324Z,102413.97
2022-08-17T03:36:51.248Z,102401.34
2022-08-17T03:40:16.281Z,102398.88
2022-08-17T03:44:00.318Z,102386.34
2022-08-17T03:47:41.288Z,102378.28
2022-08-17T03:51:24.318Z,102377.13
2022-08-17T03:55:05.237Z,102376.75
2022-08-17T03:58:28.312Z,102353.72
2022-08-17T04:01:52.357Z,102350.06
2022-08-17T04:05:17.307Z,102343.31
2022-08-17T04:08:41.317Z,102332.34
2022-08-17T04:12:05.397Z,102322.53
2022-08-17T04:15:29.289Z,102319.66
2022-08-17T04:18:52.317Z,102312.34
2022-08-17T04:22:32.204Z,102310.13
2022-08-17T04:26:02.340Z,102312.25
2022-08-17T04:29:25.298Z,102308.94
2022-08-17T04:33:07.134Z,102315.69
2022-08-17T04:36:30.312Z,102324.06
2022-08-17T04:40:13.406Z,102323.59
2022-08-17T04:43:37.261Z,102310.09
2022-08-17T04:46:55.361Z,102307.63
2022-08-17T04:50:18.279Z,102306.56
2022-08-17T04:53:42.309Z,102311.78
2022-08-17T04:57:06.246Z,102320.63
2022-08-17T05:00:29.320Z,102326.31
2022-08-17T05:03:52.288Z,102333.88
2022-08-17T05:07:18.617Z,102329.75
2022-08-17T05:10:46.321Z,102319.56
2022-08-17T05:14:10.396Z,102329.41
2022-08-17T05:17:34.374Z,102326.09
2022-08-17T05:20:57.340Z,102326.69
2022-08-17T05:24:40.795Z,102335.06
2022-08-17T05:28:03.322Z,102347.09
2022-08-17T05:31:25.308Z,102337.78
2022-08-17T05:34:48.342Z,102339.66
2022-08-17T05:38:12.414Z,102332.81
2022-08-17T05:41:36.494Z,102341.66
2022-08-17T05:44:59.341Z,102352.63
2022-08-17T05:48:22.278Z,102351.91
2022-08-17T05:52:05.513Z,102340.31
2022-08-17T05:55:34.335Z,102334.03
2022-08-17T05:58:57.337Z,102332.44
2022-08-17T06:02:24.979Z,102345.44
2022-08-17T06:06:00.399Z,102337.31
2022-08-17T06:09:33.019Z,102332.28
2022-08-17T06:13:03.343Z,102326.41
2022-08-17T06:16:35.334Z,102325.22
2022-08-17T06:20:24.337Z,102316.63
2022-08-17T06:23:52.381Z,102313.78
2022-08-17T06:27:23.359Z,102315.31
2022-08-17T06:30:59.337Z,102311.31
2022-08-17T06:34:25.297Z,102317.91
2022-08-17T06:38:07.420Z,102323.44
2022-08-17T06:41:35.718Z,102309.16
2022-08-17T06:44:59.386Z,102299.84
2022-08-17T06:48:32.519Z,102308.34
2022-08-17T06:52:42.242Z,102320.28
2022-08-17T06:56:05.405Z,102306.56
2022-08-17T06:59:47.163Z,102308.84
2022-08-17T07:03:14.385Z,102309.53
2022-08-17T07:06:39.368Z,102312.16
2022-08-17T07:10:02.424Z,102313.00
2022-08-17T07:13:44.388Z,102319.88
2022-08-17T07:17:16.365Z,102316.22
2022-08-17T07:20:41.347Z,102314.72
2022-08-17T07:24:11.392Z,102312.34
2022-08-17T07:27:59.374Z,102298.16
2022-08-17T07:31:25.377Z,102313.41
2022-08-17T07:34:57.360Z,102292.22
2022-08-17T07:38:25.813Z,102299.38
2022-08-17T07:41:58.734Z,102302.66
2022-08-17T07:45:42.382Z,102298.56
2022-08-17T07:49:16.407Z,102300.22
2022-08-17T07:52:51.408Z,102298.28
2022-08-17T07:56:16.388Z,102291.50
2022-08-17T07:59:43.189Z,102296.28
2022-08-17T08:03:15.417Z,102299.41
2022-08-17T08:06:40.375Z,102301.03
2022-08-17T08:10:21.443Z,102299.47
2022-08-17T08:13:48.358Z,102321.91
2022-08-17T08:17:16.388Z,102349.19
2022-08-17T08:20:58.396Z,102357.25
2022-08-17T08:24:24.430Z,102361.03
2022-08-17T08:28:16.359Z,102360.41
2022-08-17T08:31:57.376Z,102355.47
2022-08-17T08:35:21.446Z,102358.97
2022-08-17T08:38:55.422Z,102363.06
2022-08-17T08:42:24.400Z,102383.22
2022-08-17T08:45:50.422Z,102392.44
2022-08-17T08:49:45.587Z,102382.22
2022-08-17T08:53:22.458Z,102384.97
2022-08-17T08:57:21.540Z,102383.91
2022-08-17T09:00:36.490Z,102381.88
2022-08-17T09:04:21.785Z,102394.31
2022-08-17T09:07:45.540Z,102401.03
2022-08-17T09:11:21.390Z,102400.72
2022-08-17T09:14:55.488Z,102405.16
2022-08-17T09:19:02.891Z,102401.56
2022-08-17T09:22:39.428Z,102398.47
2022-08-17T09:26:04.389Z,102397.31
2022-08-17T09:29:32.460Z,102394.38
2022-08-17T09:32:57.483Z,102395.59
2022-08-17T09:36:26.461Z,102396.19
2022-08-17T09:40:16.607Z,102376.84
2022-08-17T09:43:39.449Z,102369.31
2022-08-17T09:47:11.461Z,102366.75
2022-08-17T09:51:04.034Z,102339.03
2022-08-17T09:54:37.942Z,102335.34
2022-08-17T09:58:02.424Z,102322.41
2022-08-17T10:02:00.455Z,102318.47
2022-08-17T10:05:17.113Z,102310.94
2022-08-17T10:08:52.490Z,102305.81
2022-08-17T10:12:30.257Z,102300.72
2022-08-17T10:16:09.467Z,102304.19
2022-08-17T10:19:50.447Z,102313.06
2022-08-17T10:23:46.448Z,102311.84
2022-08-17T10:27:09.458Z,102313.38
2022-08-17T10:30:37.491Z,102301.00
2022-08-17T10:34:12.425Z,102295.84
2022-08-17T10:37:50.615Z,102291.22
2022-08-17T10:41:13.507Z,102294.78
2022-08-17T10:44:50.398Z,102283.34
2022-08-17T10:48:14.477Z,102254.47
2022-08-17T10:51:51.464Z,102252.22
2022-08-17T10:55:22.493Z,102242.13
2022-08-17T10:58:46.408Z,102218.75
2022-08-17T11:02:10.646Z,102237.06
2022-08-17T11:06:02.994Z,102234.09
2022-08-17T11:09:35.518Z,102250.53
2022-08-17T11:13:07.432Z,102245.94
2022-08-17T11:16:40.514Z,102249.59
2022-08-17T11:20:09.472Z,102243.59
2022-08-17T11:23:50.438Z,102240.50
2022-08-17T11:27:16.480Z,102231.66
2022-08-17T11:31:00.423Z,102224.31
2022-08-17T11:34:34.475Z,102216.34
2022-08-17T11:38:09.704Z,102205.84
2022-08-17T11:41:47.496Z,102198.78
2022-08-17T11:45:19.355Z,102178.03
2022-08-17T11:49:25.558Z,102161.75
2022-08-17T11:52:54.463Z,102147.63
2022-08-17T11:56:23.505Z,102141.84
2022-08-17T11:59:52.422Z,102158.47
2022-08-17T12:03:34.567Z,102154.59
2022-08-17T12:07:02.384Z,102158.13
2022-08-17T12:10:20.549Z,102143.16
2022-08-17T12:13:44.461Z,102138.78
2022-08-17T12:17:25.900Z,102150.38
2022-08-17T12:21:00.493Z,102152.81
2022-08-17T12:24:27.474Z,102152.81
2022-08-17T12:28:05.153Z,102141.53
2022-08-17T12:31:32.475Z,102112.00
2022-08-17T12:34:56.451Z,102095.88
2022-08-17T12:38:28.166Z,102083.50
2022-08-17T12:42:02.355Z,102082.91
2022-08-17T12:45:37.523Z,102078.19
2022-08-17T12:49:00.462Z,102088.91
2022-08-17T12:52:40.529Z,102081.84
2022-08-17T12:56:04.489Z,102100.03
2022-08-17T12:59:29.793Z,102092.81
2022-08-17T13:03:03.488Z,102091.97
2022-08-17T13:06:28.486Z,102094.09
2022-08-17T13:09:45.837Z,102101.19
2022-08-17T13:13:13.557Z,102106.97
2022-08-17T13:16:38.500Z,102110.75
2022-08-17T13:20:02.520Z,102094.81
2022-08-17T13:23:25.511Z,102090.78
2022-08-17T13:26:50.503Z,102107.31
2022-08-17T13:30:15.520Z,102109.19
2022-08-17T13:33:44.650Z,102079.63
2022-08-17T13:37:35.448Z,102096.97
2022-08-17T13:41:07.572Z,102082.91
2022-08-17T13:44:51.477Z,102074.66
2022-08-17T13:48:23.550Z,102081.50
2022-08-17T13:52:06.540Z,102063.47
2022-08-17T13:55:34.552Z,102073.94
2022-08-17T13:59:08.489Z,102074.53
2022-08-17T14:02:32.506Z,102072.88
2022-08-17T14:05:55.517Z,102071.47
2022-08-17T14:09:18.533Z,102085.03
2022-08-17T14:12:52.666Z,102064.50
2022-08-17T14:16:15.540Z,102063.91
2022-08-17T14:19:40.561Z,102061.66
2022-08-17T14:23:06.496Z,102054.22
2022-08-17T14:26:29.484Z,102066.03
2022-08-17T14:29:53.514Z,102054.22
2022-08-17T14:33:16.534Z,102060.59
2022-08-17T14:36:39.534Z,102056.59
2022-08-17T14:40:15.620Z,102040.31
2022-08-17T14:43:38.571Z,102038.91
2022-08-17T14:47:01.508Z,102035.25
2022-08-17T14:50:27.571Z,102020.84
2022-08-17T14:53:51.551Z,102022.28
2022-08-17T14:57:25.875Z,102024.03
2022-08-17T15:01:00.664Z,102029.34
2022-08-17T15:04:25.548Z,102023.34
2022-08-17T15:07:49.854Z,102021.81
2022-08-17T15:11:14.455Z,102027.69
2022-08-17T15:14:37.562Z,102023.81
2022-08-17T15:18:02.798Z,102006.34
2022-08-17T15:21:26.660Z,101993.84
2022-08-17T15:24:49.492Z,101986.78
2022-08-17T15:28:12.573Z,101985.22
2022-08-17T15:31:37.529Z,102002.56
2022-08-17T15:35:00.567Z,101991.59
2022-08-17T15:38:24.576Z,101994.56
2022-08-17T15:41:47.751Z,101993.50
2022-08-17T15:45:24.586Z,101975.91
2022-08-17T15:48:50.513Z,101986.66
2022-08-17T15:52:14.560Z,101978.97
2022-08-17T15:55:37.522Z,101993.72
2022-08-17T15:59:03.608Z,101990.28
2022-08-17T16:03:45.452Z,101984.63
2022-08-17T16:06:28.547Z,101987.91
2022-08-17T16:09:51.565Z,101970.50
2022-08-17T16:13:17.292Z,101975.81
2022-08-17T16:16:34.294Z,101970.38
2022-08-17T16:19:51.590Z,101956.81
2022-08-17T16:23:19.909Z,101962.72
2022-08-17T16:26:44.605Z,101971.69
2022-08-17T16:30:09.801Z,101964.00
2022-08-17T16:33:35.557Z,101968.34
2022-08-17T16:36:58.535Z,101957.84
2022-08-17T16:40:22.575Z,101964.22
2022-08-17T16:43:45.579Z,101961.00
2022-08-17T16:47:09.577Z,101961.50
2022-08-17T16:50:35.570Z,101959.84
2022-08-17T16:53:59.655Z,101951.69
2022-08-17T16:57:23.565Z,101956.09
2022-08-17T17:00:47.570Z,101957.63
2022-08-17T17:04:12.602Z,101953.44
2022-08-17T17:07:36.591Z,101979.78
2022-08-17T17:11:04.282Z,101960.66
2022-08-17T17:14:36.371Z,101970.13
2022-08-17T17:18:04.253Z,101966.81
2022-08-17T17:21:31.298Z,101984.84
2022-08-17T17:24:54.362Z,101978.59
2022-08-17T17:28:40.358Z,101978.81
2022-08-17T17:32:28.310Z,101977.78
2022-08-17T17:36:15.297Z,101981.91
2022-08-17T17:39:41.427Z,101978.13
2022-08-17T17:43:34.740Z,101968.47
2022-08-17T17:46:53.324Z,101977.28
2022-08-17T17:50:17.416Z,101967.50
2022-08-17T17:54:06.307Z,101967.97
2022-08-17T17:57:36.351Z,101958.19
2022-08-17T18:00:59.345Z,101949.81
2022-08-17T18:04:22.380Z,101937.09
2022-08-17T18:07:49.472Z,101934.59
2022-08-17T18:11:24.183Z,101938.13
2022-08-17T18:14:49.287Z,101947.53
2022-08-17T18:18:28.342Z,101950.38
2022-08-17T18:21:53.302Z,101950.16
2022-08-17T18:25:16.371Z,101950.84
2022-08-17T18:28:42.360Z,101964.91
2022-08-17T18:32:29.367Z,101974.69
2022-08-17T18:35:58.482Z,101955.47
2022-08-17T18:39:54.538Z,101964.28
2022-08-17T18:43:19.324Z,101952.63
2022-08-17T18:46:48.350Z,101954.50
2022-08-17T18:50:34.359Z,101962.19
2022-08-17T18:53:58.374Z,101974.34
2022-08-17T18:57:22.368Z,101971.06
2022-08-17T19:00:46.334Z,101986.72
2022-08-17T19:04:09.358Z,101977.78
2022-08-17T19:07:32.374Z,101976.47
2022-08-17T19:10:55.378Z,101984.72
2022-08-17T19:14:18.360Z,102000.28
2022-08-17T19:17:50.485Z,102010.88
2022-08-17T19:21:34.370Z,102019.63
2022-08-17T19:25:02.623Z,102022.56
2022-08-17T19:28:34.405Z,102017.38
2022-08-17T19:31:58.397Z,102015.50
2022-08-17T19:35:24.418Z,102014.44
2022-08-17T19:39:06.343Z,102016.31
2022-08-17T19:42:36.418Z,102027.66
2022-08-17T19:46:35.623Z,102033.56
2022-08-17T19:50:19.405Z,102041.91
2022-08-17T19:54:17.389Z,102035.22
2022-08-17T19:57:58.375Z,102045.00
2022-08-17T20:01:22.429Z,102045.50
2022-08-17T20:04:56.455Z,102044.53
2022-08-17T20:08:36.345Z,102060.22
2022-08-17T20:12:02.403Z,102060.50
2022-08-17T20:15:28.468Z,102062.47
2022-08-17T20:18:57.339Z,102061.06
2022-08-17T20:22:51.992Z,102068.38
2022-08-17T20:26:31.391Z,102060.09
2022-08-17T20:30:26.420Z,102050.91
2022-08-17T20:33:50.344Z,102055.41
2022-08-17T20:37:14.437Z,102049.38
2022-08-17T20:40:39.424Z,102039.47
2022-08-17T20:44:12.487Z,102042.63
2022-08-17T20:47:37.399Z,102043.09
2022-08-17T20:51:00.366Z,102052.31
2022-08-17T20:54:32.401Z,102056.91
2022-08-17T20:57:56.431Z,102056.09
2022-08-17T21:01:32.415Z,102058.56
2022-08-17T21:05:02.535Z,102047.72
2022-08-17T21:08:31.364Z,102042.03
2022-08-17T21:12:04.435Z,102037.28
2022-08-17T21:15:49.419Z,102040.81
2022-08-17T21:19:37.552Z,102050.94
2022-08-17T21:23:19.419Z,102045.06
2022-08-17T21:26:50.756Z,102050.22
2022-08-17T21:30:20.397Z,102042.44
2022-08-17T21:33:45.412Z,102051.28
2022-08-17T21:37:10.360Z,102049.00
2022-08-17T21:40:37.412Z,102046.28
2022-08-17T21:44:02.448Z,102043.28
2022-08-17T21:47:28.393Z,102046.84
2022-08-17T21:50:51.434Z,102039.25
2022-08-17T21:54:15.443Z,102044.81
2022-08-17T21:57:40.514Z,102041.75
2022-08-17T22:01:27.485Z,102036.66
2022-08-17T22:04:51.410Z,102032.84
2022-08-17T22:08:20.439Z,102015.34
2022-08-17T22:11:42.373Z,102021.63
2022-08-17T22:15:14.401Z,102031.41
2022-08-17T22:18:40.428Z,102042.09
2022-08-17T22:22:04.408Z,102047.81
2022-08-17T22:25:21.023Z,102056.19
2022-08-17T22:29:04.447Z,102059.59
2022-08-17T22:32:26.486Z,102065.25
2022-08-17T22:35:56.400Z,102058.84
2022-08-17T22:39:22.468Z,102059.28
2022-08-17T22:42:45.455Z,102067.94
2022-08-17T22:46:10.435Z,102054.91
2022-08-17T22:49:53.342Z,102062.00
2022-08-17T22:53:37.420Z,102049.97
2022-08-17T22:57:21.466Z,102035.88
2022-08-17T23:00:50.477Z,102029.97
2022-08-17T23:04:14.422Z,102022.84
2022-08-17T23:07:37.485Z,102039.16
2022-08-17T23:11:00.439Z,102020.06
2022-08-17T23:14:24.470Z,102026.66
2022-08-17T23:17:49.500Z,102021.22
2022-08-17T23:21:13.532Z,102015.78
2022-08-17T23:24:49.402Z,102014.69
2022-08-17T23:28:14.505Z,102019.09
2022-08-17T23:31:40.449Z,102006.31
2022-08-17T23:35:07.470Z,102014.13
2022-08-17T23:38:35.401Z,102009.88
2022-08-17T23:42:01.587Z,102014.13
2022-08-17T23:45:24.422Z,102011.91
2022-08-17T23:48:49.469Z,102003.69
2022-08-17T23:52:15.322Z,102010.44
2022-08-17T23:55:48.438Z,102011.81
2022-08-17T23:59:35.511Z,102019.25
